Time;durP1;ratioP1;P1;durP2;ratioP2;P2;SDS_P1;SDS_P2;PMS_P1;PMS_P2;Temp;Humidity;BMP_temperature;BMP_pressure;BME280_temperature;BME280_humidity;BME280_pressure;Samples;Min_cycle;Max_cycle;Signal;HPM_P1;HPM_P2
2022/08/16 00:02:14;;;;;;;59.22;55.97;;;;;;;22.85;73.91;100238.25;4996829;28;101845;-57
2022/08/16 00:04:41;;;;;;;54.65;51.58;;;;;;;22.86;73.95;100245.41;4993094;28;102296;-57
2022/08/16 00:07:07;;;;;;;52.80;49.78;;;;;;;22.86;73.81;100245.41;4997620;28;102112;-57
2022/08/16 00:09:34;;;;;;;57.22;54.05;;;;;;;22.86;73.95;100248.19;4993591;28;103994;-57
2022/08/16 00:12:01;;;;;;;58.08;54.88;;;;;;;22.85;73.80;100252.13;4995374;28;102285;-57
2022/08/16 00:14:30;;;;;;;56.75;53.58;;;;;;;22.85;73.79;100250.16;4995205;28;102157;-57
2022/08/16 00:16:58;;;;;;;60.80;57.45;;;;;;;22.86;73.86;100259.28;4996596;28;102531;-57
2022/08/16 00:19:29;;;;;;;58.00;54.78;;;;;;;22.85;73.85;100244.59;4995233;28;104099;-57
2022/08/16 00:21:56;;;;;;;62.83;59.25;;;;;;;22.85;73.88;100238.25;4995843;28;102440;-57
2022/08/16 00:24:27;;;;;;;55.22;52.10;;;;;;;22.85;73.92;100233.50;4995090;28;102095;-57
2022/08/16 00:26:54;;;;;;;56.60;53.47;;;;;;;22.85;73.70;100243.81;4996401;28;102015;-58
2022/08/16 00:29:21;;;;;;;56.20;52.92;;;;;;;22.85;73.78;100249.34;4995313;28;104096;-57
2022/08/16 00:31:50;;;;;;;56.75;53.63;;;;;;;22.85;73.94;100249.34;4994588;28;102374;-58
2022/08/16 00:34:17;;;;;;;51.63;48.60;;;;;;;22.86;73.80;100245.41;4994904;28;102443;-57
2022/08/16 00:36:45;;;;;;;60.05;56.72;;;;;;;22.85;73.92;100246.59;4990329;28;102328;-57
2022/08/16 00:39:12;;;;;;;64.80;61.27;;;;;;;22.84;73.74;100254.09;4975728;28;103921;-57
2022/08/16 00:41:39;;;;;;;54.00;51.05;;;;;;;22.85;73.62;100246.59;4997595;28;102197;-57
2022/08/16 00:44:09;;;;;;;60.38;57.03;;;;;;;22.84;73.69;100248.56;4998912;28;102309;-57
2022/08/16 00:46:41;;;;;;;57.47;54.13;;;;;;;22.84;73.78;100239.44;4999112;28;103865;-57
2022/08/16 00:49:10;;;;;;;58.83;55.50;;;;;;;22.84;73.88;100239.44;4998712;28;108074;-57
2022/08/16 00:51:37;;;;;;;55.42;52.22;;;;;;;22.84;73.78;100242.22;4998600;28;102052;-55
2022/08/16 00:54:05;;;;;;;55.45;52.33;;;;;;;22.84;73.80;100242.22;4990061;28;102027;-57
2022/08/16 00:56:36;;;;;;;58.30;55.15;;;;;;;22.84;73.85;100243.00;4992876;28;102231;-57
2022/08/16 00:59:03;;;;;;;60.47;57.15;;;;;;;22.84;73.63;100239.44;4997638;28;103411;-57
2022/08/16 01:01:31;;;;;;;55.30;52.27;;;;;;;22.83;73.89;100235.84;4997464;28;102343;-57
2022/08/16 01:03:59;;;;;;;55.08;52.08;;;;;;;22.83;73.82;100241.41;4998553;28;102360;-57
2022/08/16 01:06:27;;;;;;;60.60;57.27;;;;;;;22.83;73.90;100235.84;4999414;28;102228;-57
2022/08/16 01:08:56;;;;;;;54.67;51.65;;;;;;;22.83;73.74;100235.03;4996946;28;103973;-58
2022/08/16 01:11:25;;;;;;;58.15;55.05;;;;;;;22.83;73.84;100240.59;4997949;28;102135;-57
2022/08/16 01:13:53;;;;;;;;;;;;;;;22.84;73.82;100247.75;4998545;28;102549;-57
2022/08/16 01:16:23;;;;;;;36.30;34.07;;;;;;;22.84;73.83;100239.44;4998433;28;102410;-57
2022/08/16 01:18:53;;;;;;;55.40;52.33;;;;;;;22.84;73.91;100242.22;4996827;28;103926;-57
2022/08/16 01:21:30;;;;;;;53.25;50.30;;;;;;;22.84;73.88;100244.97;4998904;28;102235;-57
2022/08/16 01:24:06;;;;;;;54.03;50.95;;;;;;;22.83;73.68;100235.84;4997998;28;102410;-57
2022/08/16 01:26:34;;;;;;;58.13;54.78;;;;;;;22.83;73.67;100230.31;4998919;28;102111;-57
2022/08/16 01:29:06;;;;;;;56.23;53.20;;;;;;;22.83;73.95;100232.25;4996216;28;104050;-57
2022/08/16 01:31:33;;;;;;;55.38;52.35;;;;;;;22.83;73.77;100235.03;4997540;28;102242;-57
2022/08/16 01:34:00;;;;;;;55.40;52.38;;;;;;;22.83;73.75;100233.09;4996990;28;102252;-58
2022/08/16 01:36:27;;;;;;;58.40;55.25;;;;;;;22.84;73.84;100222.78;4999256;28;102130;-57
2022/08/16 01:38:54;;;;;;;55.70;52.60;;;;;;;22.83;73.85;100221.16;4996895;28;103889;-57
2022/08/16 01:41:24;;;;;;;53.75;50.80;;;;;;;22.83;73.82;100221.16;4998366;28;103542;-57
2022/08/16 01:43:52;;;;;;;59.28;56.10;;;;;;;22.84;73.78;100225.56;4996739;28;102394;-57
2022/08/16 01:46:21;;;;;;;53.17;50.27;;;;;;;22.81;73.85;100221.53;4998514;28;102204;-57
2022/08/16 01:48:52;;;;;;;60.90;57.65;;;;;;;22.83;73.77;100226.72;4995387;28;103902;-57
2022/08/16 01:51:20;;;;;;;57.67;54.50;;;;;;;22.82;73.83;100222.34;4996450;28;102063;-57
2022/08/16 01:53:47;;;;;;;60.47;57.13;;;;;;;22.82;73.88;100222.34;4997491;28;103196;-58
2022/08/16 01:56:13;;;;;;;61.05;57.78;;;;;;;22.82;73.89;100222.34;4998538;28;102477;-57
2022/08/16 01:58:41;;;;;;;59.00;55.65;;;;;;;22.83;73.65;100223.94;4996098;28;103894;-58
2022/08/16 02:01:07;;;;;;;57.22;54.08;;;;;;;22.82;73.87;100231.47;4997589;28;102176;-57
2022/08/16 02:03:34;;;;;;;55.60;52.50;;;;;;;22.82;73.80;100233.44;4996682;28;102417;-57
2022/08/16 02:06:00;;;;;;;58.28;55.13;;;;;;;22.82;73.73;100233.44;4991696;28;102733;-57
2022/08/16 02:08:27;;;;;;;58.50;55.40;;;;;;;22.82;73.72;100238.97;4996467;28;104344;-57
2022/08/16 02:10:54;;;;;;;56.60;53.55;;;;;;;22.82;73.72;100233.44;4994652;28;102386;-57
2022/08/16 02:13:21;;;;;;;57.35;54.22;;;;;;;22.82;73.77;100231.47;4996773;28;101965;-57
2022/08/16 02:15:49;;;;;;;61.70;58.33;;;;;;;22.83;73.82;100232.25;4998348;28;102135;-57
2022/08/16 02:18:15;;;;;;;63.97;60.57;;;;;;;22.82;73.72;100230.66;4995795;28;104045;-57
2022/08/16 02:20:48;;;;;;;55.60;52.63;;;;;;;22.82;73.70;100227.88;4992363;28;102250;-57
2022/08/16 02:23:15;;;;;;;59.10;55.95;;;;;;;22.82;73.72;100227.88;4995861;28;104066;-57
2022/08/16 02:25:41;;;;;;;53.58;50.53;;;;;;;22.81;73.73;100224.31;4997541;28;102605;-57
2022/08/16 02:28:07;;;;;;;57.78;54.65;;;;;;;22.82;73.71;100222.34;4995979;28;103907;-57
2022/08/16 02:30:34;;;;;;;58.13;54.97;;;;;;;22.82;73.76;100227.88;4997845;28;102176;-57
2022/08/16 02:33:03;;;;;;;64.78;61.33;;;;;;;22.81;73.66;100220.75;4995742;28;102354;-57
2022/08/16 02:35:30;;;;;;;60.38;56.97;;;;;;;22.81;74.03;100217.97;4998071;28;102644;-57
2022/08/16 02:37:57;;;;;;;62.88;59.42;;;;;;;22.81;73.64;100221.53;4996293;28;103906;-56
2022/08/16 02:40:24;;;;;;;57.33;54.20;;;;;;;22.81;74.26;100209.66;4997156;28;102308;-57
2022/08/16 02:42:51;;;;;;;62.13;58.67;;;;;;;22.81;73.79;100220.75;4996294;28;101850;-57
2022/08/16 02:45:20;;;;;;;63.05;59.67;;;;;;;22.81;73.65;100215.19;4989700;28;102598;-56
2022/08/16 02:47:46;;;;;;;65.13;61.65;;;;;;;22.81;73.77;100212.41;4997000;28;103881;-57
2022/08/16 02:50:15;;;;;;;59.13;55.97;;;;;;;22.80;73.72;100214.41;4997002;28;102239;-57
2022/08/16 02:52:42;;;;;;;60.65;57.25;;;;;;;22.80;73.63;100214.41;4977376;28;102128;-57
2022/08/16 02:55:10;;;;;;;62.67;59.35;;;;;;;22.81;73.88;100217.97;4980436;28;102117;-57
2022/08/16 02:57:37;;;;;;;62.97;59.47;;;;;;;22.80;73.63;100225.50;4990423;28;103901;-57
2022/08/16 03:00:11;;;;;;;60.47;57.30;;;;;;;22.81;73.75;100227.09;4996514;28;102162;-57
2022/08/16 03:02:39;;;;;;;65.82;62.33;;;;;;;22.81;73.73;100226.28;4995726;28;102324;-58
2022/08/16 03:05:07;;;;;;;52.83;49.88;;;;;;;22.79;73.74;100224.69;4997045;28;102418;-57
2022/08/16 03:07:35;;;;;;;62.60;59.13;;;;;;;22.81;73.76;100235.41;4996058;28;104136;-57
2022/08/16 03:10:02;;;;;;;57.50;54.40;;;;;;;22.79;73.62;100224.69;4997401;28;101988;-57
2022/08/16 03:12:29;;;;;;;56.15;53.13;;;;;;;22.79;73.72;100230.25;4995947;28;103576;-57
2022/08/16 03:14:55;;;;;;;58.75;55.65;;;;;;;22.81;73.72;100237.38;4995172;28;102322;-58
2022/08/16 03:17:22;;;;;;;61.55;58.13;;;;;;;22.79;73.67;100235.78;4995728;28;103909;-57
2022/08/16 03:19:49;;;;;;;62.67;59.15;;;;;;;22.79;73.74;100241.34;4996951;28;102278;-57
2022/08/16 03:22:16;;;;;;;67.88;64.30;;;;;;;22.79;73.63;100241.34;4995102;28;102298;-57
2022/08/16 03:24:44;;;;;;;65.65;62.15;;;;;;;22.79;73.75;100235.78;4997213;28;102244;-57
2022/08/16 03:27:10;;;;;;;62.37;58.97;;;;;;;22.78;73.70;100228.63;4995131;28;103745;-57
2022/08/16 03:29:37;;;;;;;55.95;52.83;;;;;;;22.78;73.81;100231.38;4996017;28;102505;-57
2022/08/16 03:32:04;;;;;;;60.03;56.72;;;;;;;22.79;73.75;100229.41;4995084;28;102001;-57
2022/08/16 03:34:34;;;;;;;60.35;57.08;;;;;;;22.78;73.67;100223.06;4995955;28;102579;-57
2022/08/16 03:37:00;;;;;;;57.55;54.40;;;;;;;22.78;73.62;100225.84;4995315;28;104005;-58
2022/08/16 03:39:27;;;;;;;59.25;56.10;;;;;;;22.79;73.84;100229.41;4996440;28;102296;-57
2022/08/16 03:41:55;;;;;;;64.35;60.83;;;;;;;22.78;73.66;100223.06;4990165;28;102430;-58
2022/08/16 03:44:22;;;;;;;61.13;57.83;;;;;;;22.79;73.62;100219.16;4997065;28;102166;-57
2022/08/16 03:46:48;;;;;;;59.92;56.70;;;;;;;22.79;73.86;100219.16;4995430;28;104424;-57
2022/08/16 03:49:16;;;;;;;63.53;60.15;;;;;;;22.79;73.93;100227.47;4994098;28;102352;-58
2022/08/16 03:51:43;;;;;;;60.17;57.00;;;;;;;22.79;74.12;100219.16;4995922;28;101952;-57
2022/08/16 03:54:09;;;;;;;61.85;58.53;;;;;;;22.79;73.80;100219.16;4996507;28;102236;-57
2022/08/16 03:56:36;;;;;;;62.10;58.78;;;;;;;22.79;73.63;100224.69;4994508;28;103895;-57
2022/08/16 03:59:03;;;;;;;58.88;55.65;;;;;;;22.79;73.88;100216.38;4996524;28;101946;-57
2022/08/16 04:01:30;;;;;;;58.33;55.27;;;;;;;22.79;73.78;100215.53;4996028;28;102117;-57
2022/08/16 04:03:56;;;;;;;64.75;61.22;;;;;;;22.79;73.98;100219.16;4995915;28;102308;-57
2022/08/16 04:06:23;;;;;;;65.03;61.63;;;;;;;22.80;73.91;100217.16;4994511;28;103906;-57
2022/08/16 04:08:49;;;;;;;66.03;62.38;;;;;;;22.81;73.93;100226.28;4993759;28;102196;-57
2022/08/16 04:11:16;;;;;;;60.78;57.47;;;;;;;22.81;73.82;100227.09;4995306;28;102464;-57
2022/08/16 04:13:43;;;;;;;63.30;59.92;;;;;;;22.81;73.87;100237.38;4996984;28;102287;-57
2022/08/16 04:16:11;;;;;;;61.83;58.58;;;;;;;22.81;73.78;100238.19;4997276;28;103911;-57
2022/08/16 04:18:37;;;;;;;67.43;63.80;;;;;;;22.82;73.76;100244.53;4999615;28;102024;-57
2022/08/16 04:21:04;;;;;;;64.53;61.17;;;;;;;22.81;73.88;100243.72;4997906;28;102430;-57
2022/08/16 04:23:31;;;;;;;62.92;59.60;;;;;;;22.81;73.80;100242.94;4999082;28;102201;-58
2022/08/16 04:25:57;;;;;;;66.57;63.05;;;;;;;22.82;73.93;100238.97;4998145;28;103932;-57
2022/08/16 04:28:25;;;;;;;64.22;60.58;;;;;;;22.82;73.90;100238.97;4999096;28;102295;-58
2022/08/16 04:30:52;;;;;;;58.97;55.90;;;;;;;22.81;73.93;100240.97;4997551;28;102157;-57
2022/08/16 04:33:20;;;;;;;58.90;55.70;;;;;;;22.81;74.02;100242.94;4999484;28;102312;-57
2022/08/16 04:35:46;;;;;;;61.27;58.03;;;;;;;22.82;73.93;100250.88;4997174;28;103929;-57
2022/08/16 04:38:14;;;;;;;61.83;58.50;;;;;;;22.82;73.84;100247.31;4994292;28;102785;-58
2022/08/16 04:40:40;;;;;;;58.38;55.30;;;;;;;22.83;73.70;100254.44;4997811;28;102610;-57
2022/08/16 04:43:07;;;;;;;64.70;61.35;;;;;;;22.83;73.98;100251.69;5000329;28;102150;-57
2022/08/16 04:45:34;;;;;;;63.03;59.67;;;;;;;22.82;73.84;100250.88;4996758;28;103991;-57
2022/08/16 04:48:01;;;;;;;63.22;59.90;;;;;;;22.83;74.07;100251.69;4998802;28;102252;-57
2022/08/16 04:50:29;;;;;;;61.60;58.35;;;;;;;22.83;73.93;100251.69;4995478;28;102327;-57
2022/08/16 04:52:56;;;;;;;60.97;57.75;;;;;;;22.83;73.69;100251.69;5000483;28;102213;-57
2022/08/16 04:55:25;;;;;;;61.95;58.70;;;;;;;22.84;73.81;100256.09;4996739;28;103977;-57
2022/08/16 04:57:56;;;;;;;59.67;56.45;;;;;;;22.84;73.76;100254.09;4988002;28;102317;-57
2022/08/16 05:00:25;;;;;;;58.22;55.08;;;;;;;22.84;73.90;100259.66;4991745;28;102248;-57
2022/08/16 05:02:53;;;;;;;63.13;59.75;;;;;;;22.85;73.74;100257.69;4996202;28;102129;-51
2022/08/16 05:05:21;;;;;;;62.42;59.20;;;;;;;22.85;73.79;100263.22;4998346;28;103989;-56
2022/08/16 05:07:49;;;;;;;65.07;61.58;;;;;;;22.85;73.67;100255.69;4999160;28;102355;-56
2022/08/16 05:10:16;;;;;;;61.50;58.25;;;;;;;22.86;73.76;100256.50;4997717;28;102012;-57
2022/08/16 05:12:43;;;;;;;65.22;61.85;;;;;;;22.86;73.80;100262.84;4998564;28;102245;-57
2022/08/16 05:15:10;;;;;;;63.25;59.95;;;;;;;22.87;73.72;100252.59;4997841;28;104093;-57
2022/08/16 05:17:36;;;;;;;69.78;66.10;;;;;;;22.88;73.79;100248.63;4997448;28;102516;-57
2022/08/16 05:20:04;;;;;;;64.40;61.05;;;;;;;22.87;73.70;100247.84;4996696;28;102119;-57
2022/08/16 05:22:31;;;;;;;62.35;59.05;;;;;;;22.89;73.58;100253.00;4999247;28;102292;-57
2022/08/16 05:24:59;;;;;;;64.40;60.85;;;;;;;22.90;73.88;100252.66;4998119;28;103894;-57
2022/08/16 05:27:25;;;;;;;64.40;61.00;;;;;;;22.89;73.64;100245.47;4997523;28;102080;-58
2022/08/16 05:29:51;;;;;;;64.15;60.78;;;;;;;22.92;73.69;100249.53;4997605;28;103369;-57
2022/08/16 05:32:18;;;;;;;63.80;60.47;;;;;;;22.92;73.64;100243.97;4999830;28;102352;-57
2022/08/16 05:34:44;;;;;;;63.08;59.72;;;;;;;22.93;73.64;100245.56;4987012;28;103887;-57
2022/08/16 05:37:11;;;;;;;66.35;62.80;;;;;;;22.95;73.50;100249.59;4997415;28;102028;-57
2022/08/16 05:39:37;;;;;;;66.20;62.75;;;;;;;22.94;73.56;100253.56;4996472;28;102267;-57
2022/08/16 05:42:06;;;;;;;62.53;59.28;;;;;;;22.94;73.76;100241.66;4998646;28;101962;-58
2022/08/16 05:44:32;;;;;;;;;;;;;;;22.93;73.51;100251.91;4998222;28;103860;-57
2022/08/16 05:47:00;;;;;;;37.50;35.42;;;;;;;22.94;73.46;100247.22;4997707;28;102346;-57
2022/08/16 05:49:28;;;;;;;60.83;57.67;;;;;;;22.95;73.56;100251.56;4988612;28;102314;-57
2022/08/16 05:51:55;;;;;;;59.10;55.67;;;;;;;22.94;73.53;100250.78;4998244;28;103078;-57
2022/08/16 05:54:22;;;;;;;65.60;62.05;;;;;;;22.94;73.48;100250.78;4995408;28;103941;-57
2022/08/16 05:56:49;;;;;;;55.25;52.28;;;;;;;22.95;73.85;100257.13;4997647;28;102432;-57
2022/08/16 05:59:17;;;;;;;61.88;58.60;;;;;;;22.94;73.65;100264.66;4997025;28;103643;-57
2022/08/16 06:01:44;;;;;;;60.67;57.47;;;;;;;22.96;73.63;100261.50;4997776;28;102526;-57
2022/08/16 06:04:12;;;;;;;56.10;53.05;;;;;;;22.95;73.64;100257.13;4995824;28;103952;-57
2022/08/16 06:06:40;;;;;;;56.28;53.33;;;;;;;22.96;73.45;100262.28;4987422;28;102203;-58
2022/08/16 06:09:07;;;;;;;61.90;58.63;;;;;;;22.96;73.72;100255.94;4993202;28;102281;-58
2022/08/16 06:11:34;;;;;;;58.25;55.20;;;;;;;22.97;73.70;100250.03;4985325;28;102717;-57
2022/08/16 06:14:00;;;;;;;55.72;52.67;;;;;;;22.98;73.62;100248.06;4994660;28;103840;-58
2022/08/16 06:16:28;;;;;;;55.65;52.70;;;;;;;22.99;73.55;100249.66;4997431;28;102280;-57
2022/08/16 06:18:54;;;;;;;60.50;57.33;;;;;;;23.00;73.56;100252.06;4995336;28;102200;-57
2022/08/16 06:21:21;;;;;;;61.22;57.95;;;;;;;23.01;73.43;100253.69;4998039;28;102427;-57
2022/08/16 06:23:48;;;;;;;63.00;59.70;;;;;;;23.02;73.31;100254.50;4992417;28;103953;-57
2022/08/16 06:26:14;;;;;;;60.50;57.30;;;;;;;23.03;73.29;100267.19;4995895;28;102413;-58
2022/08/16 06:28:41;;;;;;;57.85;54.80;;;;;;;23.03;72.99;100258.88;4987608;28;101935;-57
2022/08/16 06:31:09;;;;;;;52.63;49.83;;;;;;;23.06;73.27;100266.47;4989412;28;102301;-57
2022/08/16 06:33:37;;;;;;;56.13;53.07;;;;;;;23.06;73.17;100255.34;4994653;28;103851;-58
2022/08/16 06:36:05;;;;;;;55.30;52.33;;;;;;;23.07;73.01;100259.72;4997381;28;102607;-58
2022/08/16 06:38:32;;;;;;;56.88;53.78;;;;;;;23.08;73.02;100258.59;4996840;28;101882;-57
2022/08/16 06:40:58;;;;;;;51.33;48.63;;;;;;;23.08;72.90;100264.13;4997855;28;102411;-57
2022/08/16 06:43:25;;;;;;;51.70;48.90;;;;;;;23.07;73.17;100247.84;4996569;28;103973;-57
2022/08/16 06:45:51;;;;;;;52.50;49.67;;;;;;;23.07;73.20;100250.59;4991146;28;103786;-57
2022/08/16 06:48:18;;;;;;;53.80;50.95;;;;;;;23.07;73.29;100256.16;4994439;28;104390;-57
2022/08/16 06:50:48;;;;;;;54.92;51.88;;;;;;;23.07;73.24;100256.94;4997719;28;102205;-58
2022/08/16 06:53:16;;;;;;;50.38;47.53;;;;;;;23.07;73.36;100256.94;4984177;28;103949;-57
2022/08/16 06:55:43;;;;;;;54.53;51.53;;;;;;;23.07;73.35;100254.19;4983843;28;101932;-57
2022/08/16 06:58:09;;;;;;;54.47;51.50;;;;;;;23.07;73.33;100268.06;4976739;28;102112;-57
2022/08/16 07:00:37;;;;;;;56.83;53.80;;;;;;;23.08;73.28;100263.31;4982239;28;102249;-57
2022/08/16 07:03:03;;;;;;;59.10;55.75;;;;;;;23.08;73.26;100264.13;4984012;28;103792;-57
2022/08/16 07:05:32;;;;;;;52.47;49.67;;;;;;;23.09;73.13;100262.97;4980178;28;102433;-57
2022/08/16 07:08:03;;;;;;;51.13;48.33;;;;;;;23.11;72.85;100257.81;4990870;28;102437;-57
2022/08/16 07:10:29;;;;;;;48.70;46.03;;;;;;;23.13;72.88;100266.59;4984542;28;102071;-57
2022/08/16 07:12:56;;;;;;;55.45;52.45;;;;;;;23.16;72.78;100271.41;4982859;28;103842;-57
2022/08/16 07:15:23;;;;;;;49.50;46.88;;;;;;;23.15;72.71;100264.28;4987689;28;102386;-59
2022/08/16 07:17:50;;;;;;;52.35;49.58;;;;;;;23.16;72.66;100259.53;4992091;28;102208;-57
2022/08/16 07:20:21;;;;;;;49.10;46.45;;;;;;;23.16;72.75;100257.53;4986851;28;102255;-57
2022/08/16 07:22:48;;;;;;;48.58;45.88;;;;;;;23.19;72.92;100264.34;4979028;28;104071;-58
2022/08/16 07:25:16;;;;;;;56.38;53.33;;;;;;;23.20;72.68;100263.97;4983745;28;102403;-57
2022/08/16 07:27:43;;;;;;;50.63;47.83;;;;;;;23.23;72.47;100260.44;4986272;28;102166;-59
2022/08/16 07:30:12;;;;;;;50.85;48.15;;;;;;;23.24;72.54;100267.59;4990433;28;102367;-57
2022/08/16 07:32:39;;;;;;;51.08;48.40;;;;;;;23.25;72.59;100260.88;4980994;28;103899;-57
2022/08/16 07:35:06;;;;;;;47.35;44.72;;;;;;;23.27;72.35;100266.88;4989082;28;101993;-57
2022/08/16 07:37:33;;;;;;;47.63;45.10;;;;;;;23.30;72.49;100264.50;4978740;28;102160;-57
2022/08/16 07:40:01;;;;;;;51.97;48.95;;;;;;;23.31;72.44;100263.34;4985407;28;104968;-57
2022/08/16 07:42:28;;;;;;;45.47;43.00;;;;;;;23.32;72.46;100262.19;4985496;28;104069;-56
2022/08/16 07:44:56;;;;;;;47.60;45.00;;;;;;;23.32;72.39;100253.84;4996274;28;102331;-57
2022/08/16 07:47:23;;;;;;;45.75;43.22;;;;;;;23.34;72.43;100257.06;4994420;28;102143;-58
2022/08/16 07:49:49;;;;;;;55.65;52.75;;;;;;;23.34;72.27;100255.09;4997182;28;102233;-57
2022/08/16 07:52:16;;;;;;;46.60;44.10;;;;;;;23.35;72.17;100244.78;4998567;28;105128;-57
2022/08/16 07:54:42;;;;;;;48.38;45.75;;;;;;;23.36;72.17;100247.19;4996207;28;102126;-57
2022/08/16 07:57:09;;;;;;;48.92;46.05;;;;;;;23.37;72.05;100259.09;4998377;28;102237;-57
2022/08/16 07:59:37;;;;;;;46.55;44.03;;;;;;;23.36;72.39;100263.03;4999864;28;102314;-58
2022/08/16 08:02:04;;;;;;;48.03;45.47;;;;;;;23.34;72.08;100259.84;4998394;28;103939;-57
2022/08/16 08:04:33;;;;;;;48.88;46.28;;;;;;;23.32;72.41;100260.19;4999804;28;102343;-57
2022/08/16 08:07:01;;;;;;;43.97;41.58;;;;;;;23.30;72.56;100262.56;4998413;28;102360;-58
2022/08/16 08:09:28;;;;;;;48.97;46.42;;;;;;;23.27;72.57;100258.53;4999523;28;102236;-58
2022/08/16 08:11:54;;;;;;;41.90;39.60;;;;;;;23.29;72.64;100260.13;4997136;28;103955;-57
2022/08/16 08:14:21;;;;;;;49.28;46.47;;;;;;;23.28;72.46;100262.13;4997894;28;102293;-57
2022/08/16 08:16:49;;;;;;;45.05;42.65;;;;;;;23.26;73.15;100245.00;4998994;28;102243;-57
2022/08/16 08:19:15;;;;;;;42.90;40.57;;;;;;;23.23;73.16;100246.56;4992879;28;102620;-57
2022/08/16 08:21:42;;;;;;;45.88;43.30;;;;;;;23.21;73.05;100248.09;4979079;28;104279;-57
2022/08/16 08:24:11;;;;;;;41.30;39.03;;;;;;;23.20;73.08;100255.63;4990968;28;102934;-57
2022/08/16 08:26:37;;;;;;;48.55;45.97;;;;;;;23.20;73.37;100261.19;4999210;28;102348;-57
2022/08/16 08:29:04;;;;;;;49.70;47.00;;;;;;;23.19;73.00;100267.13;4996023;28;103796;-57
2022/08/16 08:31:30;;;;;;;45.20;42.70;;;;;;;23.19;73.14;100265.13;4994075;28;104392;-57
2022/08/16 08:33:59;;;;;;;48.03;45.28;;;;;;;23.19;73.15;100265.13;4999143;28;102229;-58
2022/08/16 08:36:31;;;;;;;47.42;44.88;;;;;;;23.20;72.87;100266.72;4997844;28;102255;-57
2022/08/16 08:39:00;;;;;;;45.90;43.35;;;;;;;23.23;72.83;100249.34;4998572;28;102313;-57
2022/08/16 08:41:28;;;;;;;49.97;47.13;;;;;;;23.24;72.59;100248.16;4995423;28;104203;-58
2022/08/16 08:43:55;;;;;;;45.78;43.15;;;;;;;23.26;73.07;100254.16;4987791;28;102579;-57
2022/08/16 08:46:24;;;;;;;47.37;44.57;;;;;;;23.26;72.90;100256.94;4992996;28;101973;-57
2022/08/16 08:48:51;;;;;;;50.97;47.92;;;;;;;23.23;72.94;100254.91;4991092;28;102023;-57
2022/08/16 08:51:19;;;;;;;48.78;45.95;;;;;;;23.23;73.44;100262.44;4985396;28;103905;-54
2022/08/16 08:53:47;;;;;;;50.33;47.15;;;;;;;23.32;73.90;100262.97;4986178;28;102956;-55
2022/08/16 08:56:14;;;;;;;53.45;49.45;;;;;;;23.34;74.53;100273.72;4994627;28;102362;-58
2022/08/16 08:58:41;;;;;;;58.28;54.03;;;;;;;23.29;74.25;100274.03;4992397;28;102262;-58
2022/08/16 09:01:08;;;;;;;56.25;52.63;;;;;;;23.24;74.19;100287.03;4982771;28;104418;-58
2022/08/16 09:03:35;;;;;;;56.67;52.95;;;;;;;23.20;74.02;100283.38;4996358;28;102273;-58
2022/08/16 09:06:04;;;;;;;59.03;55.60;;;;;;;23.17;73.64;100278.56;4993890;28;102353;-57
2022/08/16 09:08:33;;;;;;;55.08;51.10;;;;;;;23.11;73.90;100299.47;4998027;28;102251;-58
2022/08/16 09:11:00;;;;;;;64.85;60.72;;;;;;;23.11;73.94;100351.41;4996420;28;104095;-58
2022/08/16 09:13:26;;;;;;;55.30;51.70;;;;;;;23.06;73.97;100337.81;4997591;28;102138;-57
2022/08/16 12:04:24;;;;;;;191.63;181.35;;;;;;;22.83;75.41;100323.81;4977042;28;102261;-60
2022/08/16 12:06:51;;;;;;;237.85;225.50;;;;;;;22.83;75.60;100323.81;4955399;28;102628;-60
2022/08/16 12:09:18;;;;;;;255.27;242.32;;;;;;;22.84;75.28;100325.44;4976043;28;104097;-59
2022/08/16 12:11:45;;;;;;;267.23;253.38;;;;;;;22.84;75.36;100331.00;4974865;28;102090;-59
2022/08/16 12:14:13;;;;;;;248.90;236.18;;;;;;;22.85;75.27;100338.94;4971736;28;102452;-59
2022/08/16 12:16:39;;;;;;;243.68;231.25;;;;;;;22.85;75.11;100338.13;4968206;28;102562;-59
2022/08/16 12:19:07;;;;;;;249.55;236.60;;;;;;;22.85;75.14;100340.91;4960813;28;104023;-59
2022/08/16 12:21:35;;;;;;;236.32;224.23;;;;;;;22.85;75.09;100344.50;4968059;28;102482;-57
2022/08/16 12:24:04;;;;;;;;;;;;;;;22.86;74.86;100345.28;4960938;28;102512;-58
2022/08/16 12:26:32;;;;;;;259.85;246.90;;;;;;;22.86;75.24;100348.84;4970066;28;102176;-58
2022/08/16 12:29:00;;;;;;;253.52;240.85;;;;;;;22.85;74.99;100343.69;4967413;28;104156;-58
2022/08/16 12:31:27;;;;;;;249.20;236.40;;;;;;;22.87;75.12;100355.25;4969514;28;102662;-59
2022/08/16 12:33:54;;;;;;;225.13;213.85;;;;;;;22.87;75.20;100349.69;4968088;28;102288;-59
2022/08/16 12:36:20;;;;;;;242.18;229.68;;;;;;;22.87;75.04;100344.13;4951007;28;102543;-58
2022/08/16 12:38:48;;;;;;;224.90;213.40;;;;;;;22.86;74.87;100348.06;4946284;28;103872;-58
2022/08/16 12:41:15;;;;;;;224.43;213.03;;;;;;;22.86;75.12;100346.09;4949361;28;102214;-59
2022/08/16 12:43:42;;;;;;;225.48;213.82;;;;;;;22.86;75.03;100335.00;4941564;28;102667;-59
2022/08/16 12:46:11;;;;;;;224.27;213.05;;;;;;;22.86;74.95;100337.75;4953992;28;102297;-59
2022/08/16 12:48:56;;;;;;;222.95;211.82;;;;;;;22.88;74.94;100331.88;4947970;28;103789;-58
2022/08/16 13:04:37;;;;;;;125.55;111.53;;;;;;;22.88;74.91;100295.78;4975027;27;1407378;-58
2022/08/16 13:07:03;;;;;;;129.52;116.18;;;;;;;22.89;74.87;100300.16;5029537;28;102194;-58
2022/08/16 13:09:32;;;;;;;133.65;122.88;;;;;;;22.89;74.89;100314.03;5013858;28;104141;-58
2022/08/16 13:12:06;;;;;;;136.23;126.90;;;;;;;22.87;74.64;100310.84;5031873;28;102563;-58
2022/08/16 13:14:34;;;;;;;143.48;133.32;;;;;;;22.89;74.75;100316.81;5027192;28;102452;-58
2022/08/16 13:17:02;;;;;;;;;;;;;;;22.89;74.68;100322.38;5002422;28;102692;-57
2022/08/16 13:19:29;;;;;;;184.52;172.70;;;;;;;22.89;74.90;100317.63;5030318;28;104075;-57
2022/08/16 13:21:57;;;;;;;165.52;154.05;;;;;;;22.89;74.78;100311.25;5034123;28;102005;-57
2022/08/16 13:24:23;;;;;;;159.63;149.73;;;;;;;22.89;74.69;100298.19;5034180;28;102548;-57
2022/08/16 13:26:50;;;;;;;166.68;154.63;;;;;;;22.89;74.71;100294.63;5033140;28;102269;-57
2022/08/16 13:29:16;;;;;;;172.02;160.32;;;;;;;22.90;74.69;100299.00;5030147;28;103951;-59
2022/08/16 13:31:43;;;;;;;170.40;159.85;;;;;;;22.89;74.63;100291.84;5031243;28;102252;-57
2022/08/16 13:34:10;;;;;;;171.90;161.75;;;;;;;22.91;74.87;100303.41;5030772;28;102202;-57
2022/08/16 15:43:30;;;;;;;20.20;18.50;;;;;;;22.84;74.81;100347.63;4974632;28;102402;-61
2022/08/16 15:48:41;;;;;;;14.20;13.07;;;;;;;22.83;74.81;100349.59;4940673;28;108087;-59
2022/08/16 15:51:07;;;;;;;15.73;12.20;;;;;;;22.83;74.78;100346.84;4945671;28;103693;-61
2022/08/16 15:53:34;;;;;;;13.38;12.18;;;;;;;22.84;74.61;100342.09;4953043;28;102350;-61
2022/08/16 15:56:00;;;;;;;13.10;11.98;;;;;;;22.85;74.89;100332.59;4954379;28;102301;-60
2022/08/16 15:58:29;;;;;;;14.23;11.52;;;;;;;22.84;74.88;100336.53;4951133;28;104091;-60
2022/08/16 16:00:56;;;;;;;12.50;11.40;;;;;;;22.83;74.87;100329.34;4928638;28;102190;-59
2022/08/16 16:03:25;;;;;;;12.95;11.95;;;;;;;22.84;74.78;100319.91;4928908;28;102269;-59
2022/08/16 16:05:54;;;;;;;13.15;12.05;;;;;;;22.84;74.67;100320.69;4933294;28;102333;-59
2022/08/16 16:08:24;;;;;;;12.27;11.20;;;;;;;22.86;74.87;100334.19;4932230;28;104150;-59
2022/08/16 16:10:53;;;;;;;12.55;11.50;;;;;;;22.85;74.65;100332.59;4927192;28;102253;-59
2022/08/16 16:13:20;;;;;;;12.07;10.98;;;;;;;22.84;74.69;100331.78;4938412;28;102486;-59
2022/08/16 16:15:50;;;;;;;12.15;11.05;;;;;;;22.85;74.87;100338.13;4947646;28;102321;-59